Time;durP1;ratioP1;P1;durP2;ratioP2;P2;SDS_P1;SDS_P2;PMS_P1;PMS_P2;Temp;Humidity;BMP_temperature;BMP_pressure;BME280_temperature;BME280_humidity;BME280_pressure;Samples;Min_cycle;Max_cycle;Signal;HPM_P1;HPM_P2
2024/02/26 00:00:17;;;;;;;1.53;0.93;;;18.60;57.90;;;;;;5096449;28;20439;-81
2024/02/26 00:02:44;;;;;;;4.30;1.10;;;18.60;57.90;;;;;;5096552;28;20934;-81
2024/02/26 00:05:11;;;;;;;1.80;1.00;;;18.60;57.90;;;;;;5096480;28;20428;-81
2024/02/26 00:07:38;;;;;;;2.23;1.00;;;18.60;57.90;;;;;;5096487;28;20439;-81
2024/02/26 00:10:06;;;;;;;2.07;1.03;;;18.60;57.90;;;;;;5096510;28;20792;-81
2024/02/26 00:12:33;;;;;;;1.73;1.00;;;18.60;57.90;;;;;;5099259;28;20431;-80
2024/02/26 00:15:00;;;;;;;1.50;0.90;;;18.60;57.90;;;;;;5099312;28;20427;-80
2024/02/26 00:17:28;;;;;;;1.50;1.00;;;18.60;57.90;;;;;;5097085;28;20483;-80
2024/02/26 00:19:55;;;;;;;1.60;1.03;;;18.60;57.80;;;;;;5097870;28;20518;-79
2024/02/26 00:22:22;;;;;;;1.83;1.00;;;18.60;58.40;;;;;;5096298;28;20438;-79
2024/02/26 00:24:49;;;;;;;1.50;0.90;;;18.60;57.90;;;;;;5096328;28;20440;-80
2024/02/26 00:27:16;;;;;;;1.70;0.90;;;18.60;57.80;;;;;;5096376;28;20938;-80
2024/02/26 00:29:43;;;;;;;1.50;0.90;;;18.60;57.80;;;;;;5095901;28;20531;-80
2024/02/26 00:32:10;;;;;;;1.70;1.00;;;18.60;57.90;;;;;;5095808;28;20495;-81
2024/02/26 00:34:38;;;;;;;1.53;1.00;;;18.60;57.90;;;;;;5095849;28;20431;-80
2024/02/26 00:37:05;;;;;;;1.73;0.97;;;18.50;57.80;;;;;;5095789;28;22327;-81
2024/02/26 00:39:32;;;;;;;1.53;0.90;;;18.60;57.90;;;;;;5097069;28;20454;-81
2024/02/26 00:41:59;;;;;;;1.50;1.00;;;18.50;57.80;;;;;;5095801;28;20442;-81
2024/02/26 00:44:26;;;;;;;1.50;0.90;;;18.60;57.90;;;;;;5095826;28;20442;-81
2024/02/26 00:46:52;;;;;;;1.50;0.90;;;18.60;58.40;;;;;;5095840;28;20435;-81
2024/02/26 00:49:19;;;;;;;1.73;0.93;;;18.60;57.90;;;;;;5095782;28;20501;-80
2024/02/26 00:51:47;;;;;;;1.70;1.00;;;18.50;57.80;;;;;;5095601;28;20447;-81
2024/02/26 00:54:14;;;;;;;1.70;1.00;;;18.60;57.90;;;;;;5094723;28;20802;-81
2024/02/26 00:56:41;;;;;;;1.60;0.90;;;18.60;57.90;;;;;;5095573;28;20436;-81
2024/02/26 00:59:08;;;;;;;1.60;1.00;;;18.60;57.90;;;;;;5095518;28;20483;-81
2024/02/26 01:01:35;;;;;;;1.67;0.90;;;18.50;57.80;;;;;;5095120;28;20462;-80
2024/02/26 01:04:03;;;;;;;1.70;0.93;;;18.60;57.90;;;;;;5095390;28;20957;-80
2024/02/26 01:06:29;;;;;;;1.60;1.00;;;18.50;57.80;;;;;;5095318;28;20489;-80
2024/02/26 01:08:58;;;;;;;1.70;1.07;;;18.50;57.80;;;;;;5096856;28;20448;-90
2024/02/26 01:11:25;;;;;;;1.47;0.90;;;18.50;57.80;;;;;;5095167;28;20526;-80
2024/02/26 01:13:56;;;;;;;2.13;0.90;;;18.50;57.80;;;;;;5096343;28;20526;-80
2024/02/26 01:16:23;;;;;;;1.70;1.00;;;18.50;57.80;;;;;;5095324;28;20502;-80
2024/02/26 01:18:49;;;;;;;1.60;1.00;;;18.50;57.80;;;;;;5095036;28;21017;-80
2024/02/26 01:21:16;;;;;;;1.50;0.87;;;18.50;57.80;;;;;;5095076;28;20432;-80
2024/02/26 01:23:43;;;;;;;1.80;0.90;;;18.50;58.40;;;;;;5094894;28;20450;-80
2024/02/26 01:26:12;;;;;;;1.60;0.93;;;18.50;57.80;;;;;;5095072;28;20831;-81
2024/02/26 01:28:38;;;;;;;1.80;1.00;;;18.50;57.80;;;;;;5095196;28;20542;-84
2024/02/26 01:31:07;;;;;;;1.60;0.80;;;18.50;57.80;;;;;;5094566;28;20473;-80
2024/02/26 01:33:34;;;;;;;1.83;1.13;;;18.50;58.40;;;;;;5094732;28;20522;-79
2024/02/26 01:36:01;;;;;;;1.50;0.90;;;18.50;57.80;;;;;;5094568;28;20441;-79
2024/02/26 01:38:28;;;;;;;1.70;1.00;;;18.50;57.80;;;;;;5094719;28;20482;-79
2024/02/26 01:40:55;;;;;;;1.60;0.80;;;18.50;57.80;;;;;;5094852;28;20435;-79
2024/02/26 01:43:23;;;;;;;1.60;0.97;;;18.50;57.80;;;;;;5094363;28;20449;-79
2024/02/26 01:45:50;;;;;;;1.60;1.00;;;18.50;57.80;;;;;;5094458;28;20791;-79
2024/02/26 01:48:17;;;;;;;1.50;0.97;;;18.50;57.80;;;;;;5094563;28;20526;-79
2024/02/26 01:50:44;;;;;;;1.57;0.90;;;18.50;57.70;;;;;;5094658;28;20427;-80
2024/02/26 01:53:11;;;;;;;1.50;1.00;;;18.50;57.80;;;;;;5094453;28;20522;-80
2024/02/26 01:55:38;;;;;;;1.50;1.07;;;18.50;57.70;;;;;;5094401;28;20442;-85
2024/02/26 01:58:07;;;;;;;1.53;1.00;;;18.50;57.80;;;;;;5094251;28;20898;-80
2024/02/26 02:00:35;;;;;;;1.43;0.90;;;18.50;57.80;;;;;;5094242;28;20467;-80
2024/02/26 02:03:03;;;;;;;1.60;1.00;;;18.50;58.30;;;;;;5094230;28;20440;-80
2024/02/26 02:05:30;;;;;;;1.70;0.90;;;18.50;57.80;;;;;;5094041;28;20439;-80
2024/02/26 02:07:57;;;;;;;1.87;1.00;;;18.50;57.80;;;;;;5094498;28;20461;-80
2024/02/26 02:10:25;;;;;;;1.53;0.80;;;18.50;57.80;;;;;;5094246;28;20526;-80
2024/02/26 02:12:52;;;;;;;1.50;0.93;;;18.50;57.80;;;;;;5094194;28;20891;-80
2024/02/26 02:15:19;;;;;;;1.43;0.83;;;18.50;57.70;;;;;;5094233;28;20442;-80
2024/02/26 02:17:47;;;;;;;1.60;1.00;;;18.50;57.70;;;;;;5094107;28;20471;-79
2024/02/26 02:20:17;;;;;;;1.70;1.13;;;18.50;57.70;;;;;;5093815;28;20454;-79
2024/02/26 02:22:46;;;;;;;1.50;0.87;;;18.50;57.80;;;;;;5094230;28;20442;-79
2024/02/26 02:25:13;;;;;;;1.70;0.80;;;18.50;57.80;;;;;;5093993;28;20446;-80
2024/02/26 02:27:40;;;;;;;1.40;0.87;;;18.50;57.80;;;;;;5093697;28;20531;-80
2024/02/26 02:30:09;;;;;;;1.50;0.90;;;18.50;57.80;;;;;;5093421;28;20459;-80
2024/02/26 02:32:38;;;;;;;1.70;1.00;;;18.50;57.80;;;;;;5093665;28;21033;-81
2024/02/26 02:35:06;;;;;;;2.13;0.90;;;18.50;57.80;;;;;;5093843;28;20431;-81
2024/02/26 02:37:33;;;;;;;1.50;0.90;;;18.50;57.80;;;;;;5093424;28;20997;-80
2024/02/26 02:40:01;;;;;;;1.50;0.80;;;18.50;57.80;;;;;;5093697;28;20436;-80
2024/02/26 02:42:28;;;;;;;1.70;0.90;;;18.40;57.70;;;;;;5093820;28;20453;-80
2024/02/26 02:44:54;;;;;;;1.50;0.90;;;18.50;57.80;;;;;;5093524;28;20530;-81
2024/02/26 02:47:21;;;;;;;1.60;0.90;;;18.50;58.30;;;;;;5093970;28;20804;-80
2024/02/26 02:49:48;;;;;;;1.60;1.00;;;18.40;57.70;;;;;;5106775;28;20499;-81
2024/02/26 02:52:15;;;;;;;1.50;1.00;;;18.40;57.60;;;;;;5104348;28;20468;-80
2024/02/26 02:54:42;;;;;;;1.70;0.80;;;18.50;57.70;;;;;;5093423;28;20436;-80
2024/02/26 02:57:10;;;;;;;1.60;0.90;;;18.50;57.80;;;;;;5093362;28;20510;-80
2024/02/26 02:59:38;;;;;;;1.70;1.00;;;18.40;57.60;;;;;;5093160;28;20486;-79
2024/02/26 03:02:08;;;;;;;1.60;0.90;;;18.40;57.60;;;;;;5093182;28;20452;-81
2024/02/26 03:04:34;;;;;;;1.50;0.90;;;18.50;57.80;;;;;;5093216;28;20923;-88
2024/02/26 03:07:01;;;;;;;1.50;0.90;;;18.40;57.60;;;;;;5093271;28;20440;-80
2024/02/26 03:09:28;;;;;;;1.60;1.10;;;18.40;57.60;;;;;;5093263;28;20442;-80
2024/02/26 03:11:55;;;;;;;1.80;1.03;;;18.40;57.60;;;;;;5093222;28;20458;-80
2024/02/26 03:14:23;;;;;;;1.43;0.90;;;18.40;57.60;;;;;;5093375;28;21033;-80
2024/02/26 03:16:50;;;;;;;1.50;0.90;;;18.40;57.60;;;;;;5093519;28;20474;-80
2024/02/26 03:19:17;;;;;;;1.60;1.10;;;18.40;57.60;;;;;;5097322;28;20569;-80
2024/02/26 03:21:44;;;;;;;1.70;0.97;;;18.40;57.70;;;;;;5097335;28;20523;-80
2024/02/26 03:24:11;;;;;;;1.70;1.00;;;18.40;57.60;;;;;;5097227;28;20926;-80
2024/02/26 03:26:38;;;;;;;1.77;1.10;;;18.40;57.70;;;;;;5097164;28;20896;-80
2024/02/26 03:29:05;;;;;;;1.53;0.83;;;18.40;57.70;;;;;;5097094;28;20922;-88
2024/02/26 03:31:33;;;;;;;1.50;0.80;;;18.40;57.60;;;;;;5096929;28;20470;-80
2024/02/26 03:34:00;;;;;;;1.90;1.00;;;18.40;57.70;;;;;;5097047;28;20485;-80
2024/02/26 03:36:27;;;;;;;1.40;0.80;;;18.40;57.60;;;;;;5096939;28;20434;-80
2024/02/26 03:38:54;;;;;;;1.40;0.80;;;18.40;57.60;;;;;;5096734;28;20924;-80
2024/02/26 03:41:21;;;;;;;1.60;0.93;;;18.40;57.60;;;;;;5097013;28;20526;-80
2024/02/26 03:43:48;;;;;;;1.50;0.90;;;18.40;58.20;;;;;;5097050;28;20632;-80
2024/02/26 03:46:15;;;;;;;2.03;0.80;;;18.40;57.60;;;;;;5096877;28;20807;-81
2024/02/26 03:48:43;;;;;;;1.37;0.77;;;18.40;57.60;;;;;;5096758;28;20530;-80
2024/02/26 03:51:10;;;;;;;1.53;0.90;;;18.40;57.60;;;;;;5097022;28;20431;-80
2024/02/26 03:53:37;;;;;;;1.50;0.90;;;18.40;57.60;;;;;;5096801;28;20772;-80
2024/02/26 03:56:07;;;;;;;1.47;0.80;;;18.40;57.60;;;;;;5096841;28;20434;-80
2024/02/26 03:58:34;;;;;;;1.50;0.90;;;18.40;57.60;;;;;;5098381;28;20569;-79
2024/02/26 04:01:01;;;;;;;1.50;0.90;;;18.40;57.60;;;;;;5097413;28;20462;-85
2024/02/26 04:03:28;;;;;;;1.80;0.90;;;18.40;57.60;;;;;;5096719;28;20518;-80
2024/02/26 04:05:56;;;;;;;1.80;0.90;;;18.40;57.60;;;;;;5096458;28;20427;-80
2024/02/26 04:08:23;;;;;;;1.50;0.90;;;18.40;57.60;;;;;;5096595;28;20445;-87
2024/02/26 04:10:50;;;;;;;1.50;1.00;;;18.40;57.60;;;;;;5096541;28;20522;-80
2024/02/26 04:13:18;;;;;;;1.40;0.80;;;18.40;57.60;;;;;;5096410;28;20436;-84
2024/02/26 04:15:46;;;;;;;1.50;0.90;;;18.40;57.60;;;;;;5096351;28;20442;-86
2024/02/26 04:18:13;;;;;;;1.50;0.80;;;18.40;57.60;;;;;;5096421;28;20435;-81
2024/02/26 04:20:41;;;;;;;1.50;0.90;;;18.40;57.60;;;;;;5096260;28;20431;-81
2024/02/26 04:23:09;;;;;;;1.60;0.90;;;18.40;57.60;;;;;;5096241;28;20441;-89
2024/02/26 04:25:36;;;;;;;1.50;0.90;;;18.40;57.60;;;;;;5096287;28;20515;-81
2024/02/26 04:28:03;;;;;;;1.53;0.90;;;18.40;57.60;;;;;;5095663;28;20434;-80
2024/02/26 04:30:31;;;;;;;1.80;0.90;;;18.40;57.70;;;;;;5095242;28;20530;-79
2024/02/26 04:32:57;;;;;;;1.50;0.80;;;18.40;57.60;;;;;;5096053;28;20442;-85
2024/02/26 04:35:24;;;;;;;1.40;0.80;;;18.40;57.60;;;;;;5095810;28;20436;-80
2024/02/26 04:37:51;;;;;;;1.50;0.80;;;18.40;57.70;;;;;;5095922;28;20514;-80
2024/02/26 04:40:19;;;;;;;1.60;0.90;;;18.40;57.70;;;;;;5095791;28;20489;-81
2024/02/26 04:42:46;;;;;;;1.50;0.90;;;18.40;57.60;;;;;;5095822;28;20439;-80
2024/02/26 04:45:13;;;;;;;1.70;0.90;;;18.40;57.70;;;;;;5095844;28;20527;-80
2024/02/26 04:47:40;;;;;;;1.63;1.00;;;18.40;57.60;;;;;;5095628;28;20455;-80
2024/02/26 04:50:07;;;;;;;1.60;0.80;;;18.30;57.60;;;;;;5095783;28;20505;-80
2024/02/26 04:52:34;;;;;;;1.70;0.97;;;18.40;57.70;;;;;;5095732;28;20428;-80
2024/02/26 04:55:01;;;;;;;1.60;0.90;;;18.30;57.60;;;;;;5095621;28;20841;-80
2024/02/26 04:57:29;;;;;;;1.50;0.90;;;18.40;57.70;;;;;;5095590;28;20807;-80
2024/02/26 04:59:56;;;;;;;1.60;1.00;;;18.30;57.60;;;;;;5095280;28;20497;-80
2024/02/26 05:02:24;;;;;;;1.60;1.00;;;18.30;57.70;;;;;;5095514;28;20440;-81
2024/02/26 05:04:51;;;;;;;1.40;0.87;;;18.40;57.70;;;;;;5095449;28;20444;-81
2024/02/26 05:07:19;;;;;;;1.60;0.97;;;18.30;57.60;;;;;;5095595;28;20523;-81
2024/02/26 05:09:49;;;;;;;1.63;0.83;;;18.30;57.60;;;;;;5095080;28;20543;-81
2024/02/26 05:12:16;;;;;;;1.50;0.90;;;18.30;57.60;;;;;;5095283;28;20467;-81
2024/02/26 05:14:44;;;;;;;1.47;0.90;;;18.30;57.60;;;;;;5095344;28;20906;-81
2024/02/26 05:17:11;;;;;;;1.50;0.80;;;18.30;58.20;;;;;;5095126;28;20432;-80
2024/02/26 05:19:38;;;;;;;1.40;0.80;;;18.30;57.60;;;;;;5094905;28;20847;-80
2024/02/26 05:22:05;;;;;;;1.50;0.90;;;18.30;57.60;;;;;;5095032;28;20427;-80
2024/02/26 05:24:31;;;;;;;1.80;1.00;;;18.30;57.60;;;;;;5095135;28;20435;-87
2024/02/26 05:26:58;;;;;;;1.50;0.90;;;18.30;57.60;;;;;;5095020;28;20952;-80
2024/02/26 05:29:25;;;;;;;1.90;1.10;;;18.20;57.60;;;;;;5094984;28;20527;-80
2024/02/26 05:31:54;;;;;;;1.80;0.90;;;18.30;57.70;;;;;;5094799;28;20926;-80
2024/02/26 05:34:21;;;;;;;1.40;0.80;;;18.30;57.60;;;;;;5098261;28;20415;-80
2024/02/26 05:36:48;;;;;;;1.60;1.00;;;18.30;57.70;;;;;;5096097;28;20438;-80
2024/02/26 05:39:16;;;;;;;1.40;0.90;;;18.30;57.60;;;;;;5095241;28;20848;-80
2024/02/26 05:41:43;;;;;;;1.60;1.07;;;18.30;57.60;;;;;;5096405;28;20454;-79
2024/02/26 05:44:10;;;;;;;1.60;0.90;;;18.30;57.60;;;;;;5104047;28;20436;-80
2024/02/26 05:46:37;;;;;;;2.10;1.00;;;18.30;57.70;;;;;;5102978;28;20440;-89
2024/02/26 05:49:05;;;;;;;1.57;1.00;;;18.30;57.70;;;;;;5094568;28;20435;-79
2024/02/26 05:51:32;;;;;;;1.43;0.90;;;18.30;57.70;;;;;;5094607;28;20427;-79
2024/02/26 05:53:59;;;;;;;1.40;0.90;;;18.30;57.70;;;;;;5094452;28;20527;-81
2024/02/26 05:56:25;;;;;;;1.90;1.00;;;18.30;57.70;;;;;;5094381;28;20565;-80
2024/02/26 05:58:54;;;;;;;1.47;0.87;;;18.30;57.70;;;;;;5094284;28;20486;-79
2024/02/26 06:01:21;;;;;;;2.57;0.90;;;18.40;57.80;;;;;;5093993;28;20459;-80
2024/02/26 06:03:47;;;;;;;1.80;0.87;;;18.30;57.70;;;;;;5094317;28;20527;-79
2024/02/26 06:06:16;;;;;;;1.60;1.00;;;18.30;57.70;;;;;;5094236;28;20531;-80
2024/02/26 06:08:42;;;;;;;1.47;0.80;;;18.30;57.70;;;;;;5094124;28;20526;-79
2024/02/26 06:11:10;;;;;;;1.70;1.00;;;18.30;57.70;;;;;;5094174;28;20909;-79
2024/02/26 06:13:37;;;;;;;1.87;1.17;;;18.30;58.30;;;;;;5093972;28;20518;-79
2024/02/26 06:16:04;;;;;;;1.50;0.90;;;18.30;57.70;;;;;;5094023;28;20538;-88
2024/02/26 06:18:31;;;;;;;1.40;0.70;;;18.30;57.70;;;;;;5093994;28;20436;-80
2024/02/26 06:20:58;;;;;;;1.50;0.80;;;18.30;57.70;;;;;;5093940;28;20475;-80
2024/02/26 06:23:26;;;;;;;1.93;1.00;;;18.30;57.70;;;;;;5094327;28;20844;-80
2024/02/26 06:25:53;;;;;;;1.60;1.00;;;18.40;57.80;;;;;;5093992;28;20435;-79
2024/02/26 06:28:20;;;;;;;1.40;0.80;;;18.30;57.70;;;;;;5093829;28;20431;-79
2024/02/26 06:30:47;;;;;;;1.40;0.80;;;18.20;57.60;;;;;;5093608;28;20494;-88
2024/02/26 06:33:14;;;;;;;1.70;0.90;;;18.30;57.70;;;;;;5093837;28;20432;-80
2024/02/26 06:35:41;;;;;;;1.70;0.93;;;18.20;57.60;;;;;;5093691;28;20431;-80
2024/02/26 06:38:09;;;;;;;1.73;0.93;;;18.30;57.70;;;;;;5093710;28;20510;-80
2024/02/26 06:40:37;;;;;;;1.50;0.97;;;18.20;57.60;;;;;;5093465;28;20490;-79
2024/02/26 06:43:04;;;;;;;1.87;1.00;;;18.20;57.60;;;;;;5093505;28;20948;-79
2024/02/26 06:45:31;;;;;;;1.53;0.90;;;18.30;57.70;;;;;;5093518;28;20527;-83
2024/02/26 06:47:57;;;;;;;1.60;0.90;;;18.20;57.70;;;;;;5093545;28;20522;-86
2024/02/26 06:50:24;;;;;;;1.50;0.80;;;18.20;57.60;;;;;;5093533;28;20431;-82
2024/02/26 06:52:51;;;;;;;1.60;0.93;;;18.20;58.30;;;;;;5092689;28;20432;-81
2024/02/26 06:55:18;;;;;;;1.60;1.00;;;18.20;57.70;;;;;;5093241;28;20453;-80
2024/02/26 06:57:46;;;;;;;1.60;0.80;;;18.30;58.30;;;;;;5093522;28;20511;-81
2024/02/26 07:00:16;;;;;;;1.57;0.90;;;18.20;57.60;;;;;;5093025;28;20491;-80
2024/02/26 07:02:43;;;;;;;1.60;0.80;;;18.20;57.60;;;;;;5093269;28;20443;-80
2024/02/26 07:05:10;;;;;;;1.57;0.90;;;18.20;57.60;;;;;;5093547;28;20463;-80
2024/02/26 07:07:36;;;;;;;1.43;0.80;;;18.20;57.70;;;;;;5093118;28;20527;-80
2024/02/26 07:10:05;;;;;;;1.50;1.00;;;18.20;57.60;;;;;;5093218;28;20454;-80
2024/02/26 07:12:32;;;;;;;1.50;0.80;;;18.20;57.70;;;;;;5093242;28;20443;-80
2024/02/26 07:15:02;;;;;;;1.80;1.00;;;18.20;57.60;;;;;;5093807;28;20530;-80
2024/02/26 07:17:29;;;;;;;2.00;0.90;;;18.20;57.70;;;;;;5094046;28;20443;-80
2024/02/26 07:19:56;;;;;;;1.50;1.07;;;18.20;57.60;;;;;;5093117;28;20928;-80
2024/02/26 07:22:24;;;;;;;1.90;1.20;;;18.20;57.70;;;;;;5093159;28;20454;-80
2024/02/26 07:24:50;;;;;;;1.60;1.00;;;18.30;57.80;;;;;;5093297;28;20439;-80
2024/02/26 07:27:17;;;;;;;1.83;0.93;;;18.20;57.70;;;;;;5093067;28;20439;-80
2024/02/26 07:29:44;;;;;;;1.60;0.90;;;18.20;57.70;;;;;;5092699;28;20445;-80
2024/02/26 07:32:12;;;;;;;1.83;0.90;;;18.20;58.30;;;;;;5093374;28;20447;-79
2024/02/26 07:34:41;;;;;;;1.50;0.90;;;18.20;58.30;;;;;;5093248;28;20432;-80
2024/02/26 07:37:08;;;;;;;1.87;0.90;;;18.20;57.70;;;;;;5093118;28;20471;-80
2024/02/26 07:39:35;;;;;;;1.50;0.90;;;18.20;57.70;;;;;;5092716;28;20590;-80
2024/02/26 07:42:02;;;;;;;1.47;0.80;;;18.20;57.70;;;;;;5093041;28;20463;-79
2024/02/26 07:44:28;;;;;;;1.50;0.90;;;18.20;57.70;;;;;;5093223;28;20439;-80
2024/02/26 07:46:54;;;;;;;1.67;1.03;;;18.20;57.70;;;;;;5092951;28;20784;-80
2024/02/26 07:49:24;;;;;;;1.50;0.90;;;18.20;57.70;;;;;;5093637;28;20431;-81
2024/02/26 07:51:51;;;;;;;1.70;0.80;;;18.20;57.70;;;;;;5093592;28;20533;-80
2024/02/26 07:54:19;;;;;;;1.60;1.03;;;18.20;57.70;;;;;;5092935;28;20454;-79
2024/02/26 07:56:46;;;;;;;1.70;1.10;;;18.20;57.70;;;;;;5092951;28;20926;-80
2024/02/26 07:59:12;;;;;;;1.60;0.80;;;18.20;57.70;;;;;;5092944;28;20431;-80
2024/02/26 08:01:41;;;;;;;1.60;1.20;;;18.20;57.70;;;;;;5092619;28;20462;-81
2024/02/26 08:04:08;;;;;;;1.83;0.90;;;18.20;57.60;;;;;;5095277;28;20500;-79
2024/02/26 08:06:36;;;;;;;1.50;0.97;;;18.20;57.60;;;;;;5097442;28;20510;-87
2024/02/26 08:09:04;;;;;;;1.40;0.73;;;18.30;57.80;;;;;;5096814;28;20435;-80
2024/02/26 08:11:31;;;;;;;1.50;0.90;;;18.20;58.30;;;;;;5096859;28;20440;-80
2024/02/26 08:13:58;;;;;;;1.40;0.80;;;18.20;57.70;;;;;;5096947;28;20852;-81
2024/02/26 08:16:25;;;;;;;1.50;1.00;;;18.20;57.70;;;;;;5096562;28;20457;-84
2024/02/26 08:18:52;;;;;;;1.40;0.70;;;18.20;57.70;;;;;;5098873;28;20518;-80
2024/02/26 08:21:19;;;;;;;1.83;0.90;;;18.20;57.70;;;;;;5099377;28;20578;-81
2024/02/26 08:23:47;;;;;;;1.50;0.90;;;18.20;57.70;;;;;;5097264;28;20428;-80
2024/02/26 08:26:17;;;;;;;1.50;1.00;;;18.20;57.70;;;;;;5097693;28;20527;-80
2024/02/26 08:28:44;;;;;;;1.60;0.90;;;18.20;57.70;;;;;;5096839;28;20447;-82
2024/02/26 08:31:11;;;;;;;1.50;0.80;;;18.20;57.70;;;;;;5096525;28;20486;-89
2024/02/26 08:33:38;;;;;;;1.77;1.00;;;18.20;57.70;;;;;;5096634;28;20436;-84
2024/02/26 08:36:06;;;;;;;1.60;0.90;;;18.20;57.70;;;;;;5099089;28;20526;-89
2024/02/26 08:38:34;;;;;;;1.97;1.00;;;18.20;57.70;;;;;;5109587;28;20442;-80
2024/02/26 08:41:03;;;;;;;1.60;1.00;;;18.20;58.30;;;;;;5110764;28;20569;-79
2024/02/26 08:43:30;;;;;;;1.60;1.00;;;18.20;57.70;;;;;;5100745;28;20435;-80
2024/02/26 08:45:58;;;;;;;2.43;0.97;;;18.20;57.70;;;;;;5096962;28;20435;-80
2024/02/26 08:48:24;;;;;;;1.50;0.90;;;18.20;57.70;;;;;;5096950;28;20519;-80
2024/02/26 08:50:51;;;;;;;1.57;1.00;;;18.20;57.70;;;;;;5096639;28;20964;-79
2024/02/26 08:53:18;;;;;;;1.60;0.90;;;18.20;58.30;;;;;;5096581;28;20431;-79
2024/02/26 08:55:45;;;;;;;1.70;1.00;;;18.20;57.70;;;;;;5096036;28;20520;-80
2024/02/26 08:58:13;;;;;;;1.60;0.90;;;18.20;57.70;;;;;;5095643;28;20942;-79
2024/02/26 09:00:40;;;;;;;1.90;1.27;;;18.30;57.80;;;;;;5097710;28;20570;-79
2024/02/26 09:03:07;;;;;;;1.40;0.80;;;18.20;57.70;;;;;;5096909;28;20443;-81
2024/02/26 09:05:34;;;;;;;2.57;0.90;;;18.20;57.70;;;;;;5096566;28;20510;-82
2024/02/26 09:08:01;;;;;;;1.83;0.90;;;18.20;57.70;;;;;;5096111;28;20486;-79
2024/02/26 09:10:28;;;;;;;1.60;0.90;;;18.20;57.70;;;;;;5096234;28;20439;-78
2024/02/26 09:12:55;;;;;;;1.60;0.80;;;18.20;57.70;;;;;;5095966;28;20530;-88
2024/02/26 09:15:23;;;;;;;1.67;0.93;;;18.20;57.70;;;;;;5095509;28;20440;-80
2024/02/26 09:17:51;;;;;;;2.00;0.90;;;18.20;57.70;;;;;;5096105;28;20526;-79
2024/02/26 09:20:20;;;;;;;1.50;0.80;;;18.20;57.70;;;;;;5095147;28;20483;-79
2024/02/26 09:22:46;;;;;;;2.20;1.00;;;18.20;57.70;;;;;;5095316;28;20442;-79
2024/02/26 09:25:15;;;;;;;1.80;0.97;;;18.20;57.70;;;;;;5094962;28;20992;-79
2024/02/26 09:27:42;;;;;;;1.60;0.90;;;18.20;57.70;;;;;;5095201;28;20446;-81
2024/02/26 09:30:09;;;;;;;1.70;1.10;;;18.20;57.70;;;;;;5094667;28;20501;-79
2024/02/26 09:32:38;;;;;;;1.60;1.00;;;18.20;57.70;;;;;;5095011;28;20858;-85
2024/02/26 09:35:06;;;;;;;1.70;0.87;;;18.20;57.70;;;;;;5095200;28;20499;-81
2024/02/26 09:37:33;;;;;;;1.67;1.10;;;18.20;57.70;;;;;;5094981;28;20434;-80
2024/02/26 09:40:00;;;;;;;1.47;0.97;;;18.20;57.70;;;;;;5094706;28;20566;-89
2024/02/26 09:42:27;;;;;;;1.40;0.80;;;18.20;57.70;;;;;;5094868;28;20853;-80
2024/02/26 09:44:55;;;;;;;2.20;1.00;;;18.20;57.70;;;;;;5094613;28;20431;-80
2024/02/26 09:47:24;;;;;;;2.07;0.90;;;18.20;57.70;;;;;;5094880;28;20463;-80
2024/02/26 09:49:54;;;;;;;1.67;1.00;;;18.20;58.30;;;;;;5094717;28;20428;-88
2024/02/26 09:52:22;;;;;;;1.50;1.10;;;18.20;57.70;;;;;;5094838;28;20428;-79
2024/02/26 09:54:49;;;;;;;1.50;0.90;;;18.20;57.70;;;;;;5094415;28;20428;-79
2024/02/26 09:57:17;;;;;;;2.30;0.80;;;18.20;57.70;;;;;;5094470;28;20423;-81
2024/02/26 09:59:46;;;;;;;1.40;0.80;;;18.20;57.70;;;;;;5094029;28;20432;-80
2024/02/26 10:02:14;;;;;;;1.60;1.00;;;18.20;57.70;;;;;;5094302;28;20442;-82
2024/02/26 10:04:42;;;;;;;1.60;0.97;;;18.20;57.70;;;;;;5094312;28;20981;-80
2024/02/26 10:07:12;;;;;;;1.77;1.00;;;18.20;57.70;;;;;;5094412;28;20850;-88
2024/02/26 10:09:39;;;;;;;1.60;0.97;;;18.30;57.80;;;;;;5094449;28;20472;-80
2024/02/26 10:12:07;;;;;;;1.50;0.90;;;18.20;57.70;;;;;;5094281;28;20523;-80
2024/02/26 10:14:34;;;;;;;1.50;1.00;;;18.20;57.70;;;;;;5094275;28;20526;-81
2024/02/26 10:17:02;;;;;;;1.60;1.00;;;18.20;57.70;;;;;;5094250;28;20805;-80
2024/02/26 10:19:30;;;;;;;1.90;1.30;;;18.20;57.70;;;;;;5093990;28;20439;-80
2024/02/26 10:22:01;;;;;;;1.50;0.90;;;18.20;57.70;;;;;;5093857;28;20479;-80
2024/02/26 10:24:30;;;;;;;1.70;1.00;;;18.20;57.70;;;;;;5093985;28;20514;-79
2024/02/26 10:26:58;;;;;;;1.70;1.00;;;18.20;57.70;;;;;;5093981;28;20539;-80
2024/02/26 10:29:26;;;;;;;1.53;1.10;;;18.20;57.70;;;;;;5093912;28;20526;-79
2024/02/26 10:31:53;;;;;;;2.47;0.90;;;18.20;57.70;;;;;;5093566;28;20570;-80
2024/02/26 10:34:20;;;;;;;1.70;0.90;;;18.20;58.30;;;;;;5096824;28;20527;-81
2024/02/26 10:36:48;;;;;;;2.43;0.80;;;18.20;57.70;;;;;;5096481;28;20439;-80
2024/02/26 10:39:15;;;;;;;1.50;0.80;;;18.20;57.70;;;;;;5097206;28;20518;-79
2024/02/26 10:41:45;;;;;;;1.70;1.00;;;18.20;57.70;;;;;;5096417;28;20843;-79
2024/02/26 10:44:12;;;;;;;1.80;1.17;;;18.20;58.30;;;;;;5096921;28;20442;-78
2024/02/26 10:46:40;;;;;;;1.40;0.80;;;18.20;57.70;;;;;;5098015;28;20444;-81
2024/02/26 10:49:18;;;;;;;1.50;0.90;;;18.20;57.70;;;;;;5098260;28;20459;-80
2024/02/26 10:51:46;;;;;;;1.53;1.00;;;18.20;57.70;;;;;;5097816;28;20944;-82
2024/02/26 10:54:17;;;;;;;1.50;0.80;;;18.20;57.70;;;;;;5097648;28;20483;-81
2024/02/26 10:56:50;;;;;;;1.47;0.90;;;18.20;57.70;;;;;;5096889;28;20434;-80
2024/02/26 10:59:21;;;;;;;2.37;1.10;;;18.20;57.70;;;;;;5097800;28;20471;-80
2024/02/26 11:01:49;;;;;;;1.53;0.93;;;18.20;57.70;;;;;;5098953;28;20487;-81
2024/02/26 11:04:17;;;;;;;1.50;0.90;;;18.20;57.70;;;;;;5097336;28;20436;-80
2024/02/26 11:06:45;;;;;;;1.80;1.00;;;18.20;57.80;;;;;;5098510;28;20463;-80
2024/02/26 11:09:16;;;;;;;2.00;1.17;;;18.20;57.70;;;;;;5096387;28;20438;-80
2024/02/26 11:11:43;;;;;;;1.93;1.00;;;18.20;57.70;;;;;;5096966;28;20436;-80
2024/02/26 11:14:15;;;;;;;1.50;0.90;;;18.20;58.30;;;;;;5096948;28;20522;-80
2024/02/26 11:16:42;;;;;;;2.43;1.00;;;18.20;58.30;;;;;;5095890;28;20442;-80
2024/02/26 11:19:11;;;;;;;1.50;0.90;;;18.20;57.70;;;;;;5093316;28;20446;-80
2024/02/26 11:21:42;;;;;;;1.60;0.90;;;18.20;57.80;;;;;;5093176;28;20820;-80
2024/02/26 11:24:11;;;;;;;3.10;1.20;;;18.30;57.80;;;;;;5093718;28;20823;-80
2024/02/26 11:26:45;;;;;;;1.63;0.97;;;18.20;57.70;;;;;;5093401;28;20799;-86
2024/02/26 11:29:16;;;;;;;1.53;0.80;;;18.20;57.70;;;;;;5093366;28;20447;-80
2024/02/26 11:31:43;;;;;;;1.80;1.07;;;18.20;57.80;;;;;;5093576;28;20485;-81
2024/02/26 11:34:13;;;;;;;1.47;0.80;;;18.20;57.70;;;;;;5107686;28;20437;-80
2024/02/26 11:36:42;;;;;;;1.50;0.90;;;18.20;57.80;;;;;;5111424;28;20514;-80
2024/02/26 11:39:09;;;;;;;1.50;0.90;;;18.20;57.80;;;;;;5101668;28;20443;-80
2024/02/26 11:41:37;;;;;;;1.60;0.90;;;18.20;57.70;;;;;;5099941;28;20515;-88
2024/02/26 11:44:06;;;;;;;1.70;0.90;;;18.20;57.70;;;;;;5100134;28;20533;-80
2024/02/26 11:46:42;;;;;;;1.73;0.93;;;18.20;57.70;;;;;;5100868;28;20471;-80
2024/02/26 11:49:31;;;;;;;1.60;1.20;;;18.20;57.70;;;;;;5100959;28;20439;-80
2024/02/26 11:51:59;;;;;;;1.60;0.90;;;18.20;57.70;;;;;;5100530;28;20522;-87
2024/02/26 11:54:47;;;;;;;1.70;1.10;;;18.20;57.70;;;;;;5101290;28;20435;-82
2024/02/26 11:57:25;;;;;;;1.70;1.10;;;18.20;57.70;;;;;;5100906;28;20940;-81
2024/02/26 11:59:52;;;;;;;1.60;1.10;;;18.20;57.70;;;;;;5100951;28;20471;-86
2024/02/26 12:02:48;;;;;;;1.60;0.90;;;18.20;57.70;;;;;;5099463;28;20972;-86
2024/02/26 12:05:17;;;;;;;1.80;0.97;;;18.20;57.70;;;;;;5089815;28;20439;-87
2024/02/26 12:07:46;;;;;;;1.53;1.00;;;18.20;57.60;;;;;;5097185;28;20440;-87
2024/02/26 12:10:26;;;;;;;2.53;1.00;;;18.20;57.60;;;;;;5097015;28;20463;-82
2024/02/26 12:13:00;;;;;;;1.70;1.00;;;18.20;58.30;;;;;;5097307;28;20453;-82
2024/02/26 12:15:33;;;;;;;1.80;1.10;;;18.30;57.80;;;;;;5096766;28;20866;-79
2024/02/26 12:18:03;;;;;;;1.50;0.90;;;18.40;57.80;;;;;;5097193;28;20439;-81
2024/02/26 12:20:31;;;;;;;1.60;0.90;;;18.30;57.80;;;;;;5096706;28;20918;-80
2024/02/26 12:22:58;;;;;;;2.00;1.03;;;18.30;57.70;;;;;;5096681;28;20436;-80
2024/02/26 12:25:26;;;;;;;1.60;1.00;;;18.30;57.70;;;;;;5096269;28;20918;-79
2024/02/26 12:27:53;;;;;;;1.63;1.13;;;18.30;57.70;;;;;;5096300;28;20435;-80
2024/02/26 12:30:20;;;;;;;1.60;1.00;;;18.30;57.70;;;;;;5095965;28;20558;-80
2024/02/26 12:32:48;;;;;;;1.53;0.97;;;18.30;57.70;;;;;;5096238;28;20542;-80
2024/02/26 12:35:18;;;;;;;1.67;0.90;;;18.30;57.70;;;;;;5096125;28;20466;-81
2024/02/26 12:37:45;;;;;;;1.70;1.10;;;18.30;57.80;;;;;;5095984;28;20485;-84
2024/02/26 12:40:13;;;;;;;3.83;0.90;;;18.30;57.80;;;;;;5095986;28;20519;-79
2024/02/26 12:42:40;;;;;;;1.90;1.00;;;18.30;57.70;;;;;;5095963;28;20574;-80
2024/02/26 12:45:09;;;;;;;1.70;1.00;;;18.30;57.70;;;;;;5095621;28;20803;-80
2024/02/26 12:47:37;;;;;;;2.80;1.50;;;18.30;57.70;;;;;;5095926;28;20436;-84
2024/02/26 12:50:05;;;;;;;2.50;1.13;;;18.30;57.60;;;;;;5094657;28;20431;-81